Time;durP1;ratioP1;P1;durP2;ratioP2;P2;SDS_P1;SDS_P2;PMS_P1;PMS_P2;Temp;Humidity;BMP_temperature;BMP_pressure;BME280_temperature;BME280_humidity;BME280_pressure;Samples;Min_cycle;Max_cycle;Signal;HPM_P1;HPM_P2
2022/01/23 00:00:21;;;;;;;21.15;13.95;;;6.30;99.90;;;;;;5092196;28;20046;-72
2022/01/23 00:02:49;;;;;;;23.00;14.25;;;6.20;99.90;;;;;;5091511;28;20081;-75
2022/01/23 00:05:23;;;;;;;19.23;13.95;;;6.20;99.90;;;;;;5091234;28;20028;-75
2022/01/23 00:07:51;;;;;;;23.08;14.85;;;6.40;99.90;;;;;;5091768;28;20496;-73
2022/01/23 00:10:17;;;;;;;20.02;13.15;;;6.30;99.90;;;;;;5091335;28;20024;-73
2022/01/23 00:12:50;;;;;;;23.30;13.63;;;6.30;99.90;;;;;;5092075;28;20031;-73
2022/01/23 00:18:00;;;;;;;22.98;12.70;;;6.30;99.90;;;;;;5092215;28;20027;-73
2022/01/23 00:20:26;;;;;;;24.40;13.40;;;6.30;99.90;;;;;;5095954;28;20017;-74
2022/01/23 00:22:57;;;;;;;26.48;13.52;;;6.30;99.90;;;;;;5096061;28;20036;-74
2022/01/23 00:30:56;;;;;;;21.58;12.93;;;6.20;99.90;;;;;;5095448;28;20477;-73
2022/01/23 00:33:23;;;;;;;17.33;12.48;;;6.30;99.90;;;;;;5086245;28;20025;-74
2022/01/23 00:35:49;;;;;;;24.85;12.80;;;6.30;99.90;;;;;;5084358;28;20037;-73
2022/01/23 00:38:16;;;;;;;22.80;12.07;;;6.30;99.90;;;;;;5074115;28;20443;-73
2022/01/23 00:40:44;;;;;;;17.85;11.85;;;6.30;99.90;;;;;;5075529;28;20028;-73
2022/01/23 00:43:30;;;;;;;28.73;13.73;;;6.30;99.90;;;;;;5075336;28;20037;-73
2022/01/23 00:46:10;;;;;;;21.15;13.23;;;6.30;99.90;;;;;;5074382;28;20582;-73
2022/01/23 00:48:41;;;;;;;18.85;14.07;;;6.30;99.90;;;;;;5075156;28;20036;-73
2022/01/23 00:51:07;;;;;;;21.48;13.10;;;6.20;99.90;;;;;;5075298;28;20054;-74
2022/01/23 00:53:33;;;;;;;24.17;12.98;;;6.20;99.90;;;;;;5074825;28;20111;-73
2022/01/23 00:55:58;;;;;;;22.75;13.27;;;6.20;99.90;;;;;;5074788;28;20023;-74
2022/01/23 00:58:24;;;;;;;21.15;12.93;;;6.20;99.90;;;;;;5074302;28;20083;-73
2022/01/23 01:00:50;;;;;;;25.48;13.88;;;6.20;99.90;;;;;;5074587;28;20495;-73
2022/01/23 01:03:15;;;;;;;23.23;14.15;;;6.20;99.90;;;;;;5074491;28;20041;-74
2022/01/23 01:05:41;;;;;;;20.02;13.23;;;6.30;99.90;;;;;;5074371;28;20518;-73
2022/01/23 01:08:07;;;;;;;21.75;13.18;;;6.20;99.90;;;;;;5074951;28;20052;-73
2022/01/23 01:10:59;;;;;;;18.33;12.48;;;6.20;99.90;;;;;;5075008;28;20020;-73
2022/01/23 01:13:30;;;;;;;21.70;13.80;;;6.20;99.90;;;;;;5073848;28;20082;-74
2022/01/23 01:32:14;;;;;;;18.27;13.27;;;6.20;99.90;;;;;;5058086;28;20047;-74
2022/01/23 01:35:00;;;;;;;23.45;13.50;;;6.30;99.90;;;;;;5073448;28;20540;-73
2022/01/23 01:37:26;;;;;;;27.85;13.68;;;6.20;99.90;;;;;;5074244;28;20033;-74
2022/01/23 01:39:54;;;;;;;20.25;13.30;;;6.20;99.90;;;;;;5074582;28;20021;-73
2022/01/23 01:42:20;;;;;;;22.42;13.75;;;6.20;99.90;;;;;;5073570;28;20097;-73
2022/01/23 01:44:45;;;;;;;25.45;13.93;;;6.20;99.90;;;;;;5073950;28;20029;-73
2022/01/23 01:47:11;;;;;;;26.77;14.57;;;6.20;99.90;;;;;;5073597;28;20051;-74
2022/01/23 01:49:36;;;;;;;22.58;13.85;;;6.20;99.90;;;;;;5073737;28;20025;-73
2022/01/23 01:52:04;;;;;;;20.02;13.48;;;6.20;99.90;;;;;;5073979;28;20029;-73
2022/01/23 01:54:32;;;;;;;25.30;14.70;;;6.20;99.90;;;;;;5073951;28;20028;-74
2022/01/23 01:57:10;;;;;;;23.50;13.77;;;6.20;99.90;;;;;;5073053;28;20033;-73
2022/01/23 02:10:25;;;;;;;20.98;13.90;;;6.20;99.90;;;;;;5113605;28;20038;-73
2022/01/23 02:13:05;;;;;;;22.42;13.85;;;6.30;99.90;;;;;;5115407;28;20442;-73
2022/01/23 02:18:28;;;;;;;27.55;13.68;;;6.20;99.90;;;;;;5113856;28;20067;-73
2022/01/23 02:51:57;;;;;;;23.85;13.73;;;6.10;99.90;;;;;;5072543;28;20154;-74
2022/01/23 02:57:08;;;;;;;23.75;14.88;;;6.10;99.90;;;;;;5072997;28;20097;-73
2022/01/23 02:59:37;;;;;;;18.77;13.68;;;6.20;99.90;;;;;;5072464;28;20017;-74
2022/01/23 03:04:41;;;;;;;22.42;13.63;;;6.20;99.90;;;;;;5073590;28;20111;-74
2022/01/23 03:07:16;;;;;;;25.35;13.93;;;6.10;99.90;;;;;;5072139;28;20083;-74
2022/01/23 03:13:24;;;;;;;27.63;14.18;;;6.10;99.90;;;;;;5072541;28;20058;-74
2022/01/23 03:15:26;;;;;;;21.75;14.52;;;6.10;99.90;;;;;;5072723;28;20036;-74
2022/01/23 03:26:18;;;;;;;23.23;14.05;;;6.10;99.90;;;;;;5072613;28;20086;-74
2022/01/23 03:29:03;;;;;;;21.48;13.50;;;6.10;99.90;;;;;;5073033;28;20052;-73
2022/01/23 03:31:39;;;;;;;19.60;14.02;;;6.10;99.90;;;;;;5073615;28;20034;-74
2022/01/23 03:34:05;;;;;;;25.00;14.60;;;6.00;99.90;;;;;;5072220;28;20035;-72
2022/01/23 03:36:31;;;;;;;21.17;13.10;;;6.10;99.90;;;;;;5072542;28;20040;-72
2022/01/23 03:38:56;;;;;;;22.92;13.60;;;6.10;99.90;;;;;;5072865;28;20025;-74
2022/01/23 03:41:22;;;;;;;21.02;13.25;;;6.00;99.90;;;;;;5071608;28;20064;-74
2022/01/23 03:43:48;;;;;;;20.27;13.48;;;6.10;99.90;;;;;;5072889;28;20028;-73
2022/01/23 03:46:23;;;;;;;22.75;14.23;;;6.10;99.90;;;;;;5072633;28;20070;-74
2022/01/23 03:51:36;;;;;;;22.77;14.07;;;6.10;99.90;;;;;;5072284;28;20495;-73
2022/01/23 03:54:02;;;;;;;23.40;15.27;;;6.10;99.90;;;;;;5072170;28;20040;-74
2022/01/23 03:56:30;;;;;;;25.48;14.52;;;6.10;99.90;;;;;;5072088;28;20024;-74
2022/01/23 03:58:57;;;;;;;21.50;12.95;;;6.10;99.90;;;;;;5072479;28;20025;-74
2022/01/23 04:01:23;;;;;;;20.88;13.50;;;6.10;99.90;;;;;;5071566;28;20032;-74
2022/01/23 04:03:49;;;;;;;25.73;14.32;;;6.10;99.90;;;;;;5071943;28;20500;-74
2022/01/23 04:06:15;;;;;;;26.05;15.02;;;6.10;99.90;;;;;;5072084;28;20431;-74
2022/01/23 04:08:41;;;;;;;24.20;14.18;;;6.10;99.90;;;;;;5071208;28;20052;-74
2022/01/23 04:11:06;;;;;;;19.42;13.82;;;6.10;99.90;;;;;;5072113;28;20039;-74
2022/01/23 04:16:46;;;;;;;20.27;13.88;;;6.10;99.90;;;;;;5037212;28;20115;-73
2022/01/23 04:19:28;;;;;;;20.50;12.95;;;6.10;99.90;;;;;;5071697;28;20032;-74
2022/01/23 04:45:09;;;;;;;24.35;14.60;;;6.10;99.90;;;;;;5071999;28;20116;-74
2022/01/23 05:00:02;;;;;;;25.83;15.75;;;6.10;99.90;;;;;;5071781;28;20090;-73
2022/01/23 05:05:12;;;;;;;25.60;14.95;;;6.10;99.90;;;;;;5074200;28;20058;-73
2022/01/23 05:07:43;;;;;;;25.02;14.77;;;6.10;99.90;;;;;;5076000;28;20057;-74
2022/01/23 05:10:09;;;;;;;22.25;14.77;;;6.10;99.90;;;;;;5075699;28;20096;-74
2022/01/23 05:12:35;;;;;;;23.55;13.02;;;6.10;99.90;;;;;;5075259;28;20116;-73
2022/01/23 05:15:00;;;;;;;23.55;15.18;;;6.10;99.90;;;;;;5075439;28;20035;-75
2022/01/23 05:17:26;;;;;;;25.35;15.23;;;6.10;99.90;;;;;;5075238;28;20012;-73
2022/01/23 05:19:52;;;;;;;25.35;14.07;;;6.10;99.90;;;;;;5076449;28;20025;-73
2022/01/23 05:24:51;;;;;;;24.98;15.57;;;6.10;99.90;;;;;;5075589;28;20021;-73
2022/01/23 05:27:17;;;;;;;25.80;15.45;;;6.10;99.90;;;;;;5073819;28;20107;-73
2022/01/23 05:29:43;;;;;;;19.73;13.75;;;6.10;99.90;;;;;;5075043;28;20044;-74
2022/01/23 05:32:11;;;;;;;21.42;14.60;;;6.10;99.90;;;;;;5074461;28;20531;-73
2022/01/23 05:34:37;;;;;;;23.25;14.57;;;6.10;99.90;;;;;;5074536;28;20051;-73
2022/01/23 05:37:03;;;;;;;23.88;14.30;;;6.10;99.90;;;;;;5074800;28;20016;-74
2022/01/23 05:39:32;;;;;;;24.90;15.38;;;6.10;99.90;;;;;;5075218;28;20249;-73
2022/01/23 05:42:05;;;;;;;22.90;13.95;;;6.10;99.90;;;;;;5074596;28;20048;-73
2022/01/23 05:44:31;;;;;;;23.02;14.40;;;6.10;99.90;;;;;;5075045;28;20469;-73
2022/01/23 05:46:56;;;;;;;21.67;14.13;;;6.00;99.90;;;;;;5074310;28;20033;-73
2022/01/23 05:49:22;;;;;;;27.33;14.27;;;6.10;99.90;;;;;;5074236;28;20184;-73
2022/01/23 05:51:48;;;;;;;21.95;13.75;;;6.10;99.90;;;;;;5074414;28;20017;-73
2022/01/23 05:54:14;;;;;;;23.80;14.18;;;6.10;99.90;;;;;;5073760;28;20048;-73
2022/01/23 05:56:40;;;;;;;25.83;15.32;;;6.00;99.90;;;;;;5073763;28;20427;-73
2022/01/23 05:59:05;;;;;;;26.17;14.82;;;6.10;99.90;;;;;;5074713;28;20021;-73
2022/01/23 06:01:34;;;;;;;22.70;14.65;;;6.10;99.90;;;;;;5074178;28;20077;-73
2022/01/23 06:04:00;;;;;;;25.35;15.10;;;6.00;99.90;;;;;;5074529;28;20032;-72
2022/01/23 06:06:25;;;;;;;23.08;14.18;;;6.00;99.90;;;;;;5073846;28;20032;-73
2022/01/23 06:08:51;;;;;;;21.08;13.82;;;6.00;99.90;;;;;;5073968;28;20064;-73
2022/01/23 06:11:16;;;;;;;25.73;14.50;;;6.00;99.90;;;;;;5074335;28;20107;-74
2022/01/23 06:13:42;;;;;;;23.90;14.35;;;6.00;99.90;;;;;;5074430;28;20017;-73
2022/01/23 06:16:07;;;;;;;25.38;15.52;;;6.00;99.90;;;;;;5073413;28;20033;-73
2022/01/23 06:18:36;;;;;;;21.02;15.23;;;6.00;99.90;;;;;;5074109;28;20028;-73
2022/01/23 06:21:02;;;;;;;22.13;14.50;;;6.00;99.90;;;;;;5074047;28;20160;-73
2022/01/23 06:23:30;;;;;;;22.45;15.25;;;6.00;99.90;;;;;;5073116;28;20036;-73
2022/01/23 06:25:56;;;;;;;22.85;14.80;;;5.90;99.90;;;;;;5073885;28;20048;-73
2022/01/23 06:28:52;;;;;;;26.83;15.80;;;5.90;99.90;;;;;;5074090;28;20025;-73
2022/01/23 06:31:21;;;;;;;23.10;15.00;;;6.00;99.90;;;;;;5073961;28;20476;-73
2022/01/23 06:33:46;;;;;;;24.73;14.75;;;5.90;99.90;;;;;;5074315;28;20033;-73
2022/01/23 06:36:12;;;;;;;25.98;15.48;;;5.90;99.90;;;;;;5073172;28;20021;-73
2022/01/23 06:38:37;;;;;;;23.70;15.40;;;6.00;99.90;;;;;;5073936;28;20526;-74
2022/01/23 06:41:03;;;;;;;27.90;16.17;;;5.90;99.90;;;;;;5073884;28;20021;-73
2022/01/23 06:43:29;;;;;;;25.77;15.27;;;6.00;99.90;;;;;;5073083;28;20028;-73
2022/01/23 06:45:54;;;;;;;24.63;15.48;;;6.00;99.90;;;;;;5073646;28;20078;-73
2022/01/23 06:48:22;;;;;;;28.27;15.82;;;5.90;99.90;;;;;;5073411;28;20115;-73
2022/01/23 06:50:48;;;;;;;26.65;16.23;;;5.90;99.90;;;;;;5073423;28;20045;-72
2022/01/23 06:53:13;;;;;;;24.20;15.73;;;5.90;99.90;;;;;;5073835;28;20456;-73
2022/01/23 06:55:39;;;;;;;25.63;16.52;;;5.90;99.90;;;;;;5073470;28;20020;-74
2022/01/23 06:58:04;;;;;;;30.15;17.05;;;5.90;99.90;;;;;;5072232;28;20028;-73
2022/01/23 07:00:32;;;;;;;38.05;18.25;;;5.90;99.90;;;;;;5073092;28;20479;-73
2022/01/23 07:02:59;;;;;;;33.53;19.27;;;6.00;99.90;;;;;;5073553;28;20067;-73
2022/01/23 07:05:24;;;;;;;27.60;16.73;;;6.00;99.90;;;;;;5072059;28;20381;-72
2022/01/23 07:07:50;;;;;;;24.77;16.15;;;6.00;99.90;;;;;;5072604;28;20053;-73
2022/01/23 07:10:16;;;;;;;26.05;16.27;;;6.00;99.90;;;;;;5073287;28;20067;-73
2022/01/23 07:12:42;;;;;;;27.70;17.52;;;5.90;99.90;;;;;;5072188;28;20025;-72
2022/01/23 07:15:08;;;;;;;34.63;16.10;;;5.90;99.90;;;;;;5072432;28;20361;-73
2022/01/23 07:17:41;;;;;;;28.80;16.77;;;5.90;99.90;;;;;;5072825;28;20036;-74
2022/01/23 07:20:07;;;;;;;32.10;18.88;;;5.90;99.90;;;;;;5071895;28;20020;-73
2022/01/23 07:22:33;;;;;;;34.45;18.27;;;5.90;99.90;;;;;;5073160;28;20039;-72
2022/01/23 07:25:01;;;;;;;29.90;16.75;;;5.90;99.90;;;;;;5072698;28;20031;-72
2022/01/23 07:27:31;;;;;;;28.00;16.67;;;5.90;99.90;;;;;;5072098;28;20028;-73
2022/01/23 07:29:56;;;;;;;28.30;16.10;;;5.90;99.90;;;;;;5075297;28;20036;-72
2022/01/23 07:32:22;;;;;;;26.65;16.17;;;5.90;99.90;;;;;;5074913;28;20039;-74
2022/01/23 07:34:47;;;;;;;26.83;16.50;;;5.90;99.90;;;;;;5071472;28;20044;-72
2022/01/23 07:37:15;;;;;;;31.52;17.60;;;5.90;99.90;;;;;;5071476;28;20529;-73
2022/01/23 07:39:40;;;;;;;27.80;16.08;;;5.90;99.90;;;;;;5071218;28;20485;-73
2022/01/23 07:42:07;;;;;;;28.30;16.65;;;5.90;99.90;;;;;;5071304;28;20029;-74
2022/01/23 07:44:32;;;;;;;28.95;16.40;;;5.90;99.90;;;;;;5072013;28;20039;-74
2022/01/23 07:46:58;;;;;;;28.00;16.23;;;5.90;99.90;;;;;;5073753;28;20032;-74
2022/01/23 07:49:23;;;;;;;26.83;16.48;;;6.00;99.90;;;;;;5075653;28;20016;-74
2022/01/23 07:51:49;;;;;;;35.15;16.67;;;5.90;99.90;;;;;;5070988;28;20047;-74
2022/01/23 07:54:15;;;;;;;27.00;16.65;;;5.90;99.90;;;;;;5071262;28;20025;-74
2022/01/23 07:56:42;;;;;;;26.83;17.45;;;6.00;99.90;;;;;;5072199;28;20372;-74
2022/01/23 07:59:09;;;;;;;28.63;18.55;;;5.90;99.90;;;;;;5071822;28;20069;-74
2022/01/23 08:01:38;;;;;;;27.40;16.92;;;5.90;99.90;;;;;;5073968;28;20483;-74
2022/01/23 08:04:07;;;;;;;28.35;17.45;;;6.00;99.90;;;;;;5077074;28;20365;-74
2022/01/23 08:06:40;;;;;;;24.65;15.80;;;6.00;99.90;;;;;;5071670;28;20057;-74
2022/01/23 08:09:07;;;;;;;27.50;16.98;;;6.00;99.90;;;;;;5073657;28;20028;-75
2022/01/23 08:11:32;;;;;;;26.02;16.45;;;6.00;99.90;;;;;;5071464;28;20012;-75
2022/01/23 08:13:58;;;;;;;29.83;18.55;;;6.00;99.90;;;;;;5072071;28;20031;-74
2022/01/23 08:16:24;;;;;;;31.35;17.85;;;6.00;99.90;;;;;;5073645;28;20025;-75
2022/01/23 08:18:49;;;;;;;24.98;16.63;;;6.10;99.90;;;;;;5079635;28;20036;-74
2022/01/23 08:21:15;;;;;;;30.10;16.75;;;6.10;99.90;;;;;;5071782;28;20024;-75
2022/01/23 08:23:41;;;;;;;32.17;18.70;;;6.10;99.90;;;;;;5087936;28;20104;-75
2022/01/23 08:26:07;;;;;;;35.63;17.48;;;6.20;99.90;;;;;;5092484;28;20543;-75
2022/01/23 08:28:33;;;;;;;34.33;18.77;;;6.20;99.90;;;;;;5091815;28;20369;-75
2022/01/23 08:30:59;;;;;;;34.80;18.70;;;6.20;99.90;;;;;;5092259;28;20050;-74
2022/01/23 08:33:25;;;;;;;32.95;19.48;;;6.20;99.90;;;;;;5092039;28;20024;-75
2022/01/23 08:35:53;;;;;;;32.72;18.55;;;6.30;99.90;;;;;;5091902;28;20401;-75
2022/01/23 08:38:19;;;;;;;33.38;17.98;;;6.30;99.90;;;;;;5092529;28;20027;-74
2022/01/23 08:40:46;;;;;;;31.48;17.17;;;6.30;99.90;;;;;;5095577;28;20032;-75
2022/01/23 08:43:13;;;;;;;33.75;18.17;;;6.30;99.90;;;;;;5096196;28;20097;-75
2022/01/23 08:45:39;;;;;;;29.15;17.42;;;6.40;99.90;;;;;;5095490;28;20028;-73
2022/01/23 08:48:05;;;;;;;25.20;17.30;;;6.40;99.90;;;;;;5086869;28;20048;-74
2022/01/23 08:50:31;;;;;;;31.73;17.55;;;6.40;99.90;;;;;;5093152;28;20051;-74
2022/01/23 08:52:56;;;;;;;29.92;17.95;;;6.40;99.90;;;;;;5095550;28;20023;-74
2022/01/23 08:55:22;;;;;;;33.40;17.33;;;6.40;99.90;;;;;;5096373;28;20273;-74
2022/01/23 08:57:48;;;;;;;34.17;19.33;;;6.50;99.90;;;;;;5096320;28;20028;-74
2022/01/23 09:00:14;;;;;;;31.23;17.67;;;6.50;99.90;;;;;;5095230;28;20012;-74
2022/01/23 09:02:40;;;;;;;32.05;17.60;;;6.50;99.90;;;;;;5095813;28;20060;-74
2022/01/23 09:05:06;;;;;;;32.85;18.40;;;6.50;99.90;;;;;;5094861;28;20660;-74
2022/01/23 09:07:32;;;;;;;30.95;18.15;;;6.50;99.90;;;;;;5095834;28;20055;-76
2022/01/23 09:10:02;;;;;;;30.92;17.02;;;6.50;99.90;;;;;;5096328;28;20020;-76
2022/01/23 09:12:56;;;;;;;29.55;18.33;;;6.50;99.90;;;;;;5095187;28;20028;-74
2022/01/23 09:15:22;;;;;;;31.00;17.55;;;6.50;99.90;;;;;;5095854;28;20028;-75
2022/01/23 09:17:57;;;;;;;36.10;16.75;;;6.50;99.90;;;;;;5095277;28;20035;-73
2022/01/23 09:20:26;;;;;;;28.85;16.90;;;6.60;99.90;;;;;;5095677;28;20032;-73
2022/01/23 09:22:51;;;;;;;28.15;17.00;;;6.60;99.90;;;;;;5096112;28;20491;-72
2022/01/23 09:25:17;;;;;;;36.78;19.65;;;6.60;99.90;;;;;;5094872;28;20100;-72
2022/01/23 09:27:43;;;;;;;26.20;16.60;;;6.70;99.90;;;;;;5096033;28;20028;-75
2022/01/23 09:30:19;;;;;;;25.40;16.42;;;6.70;99.90;;;;;;5095898;28;20070;-75
2022/01/23 09:32:46;;;;;;;30.02;16.88;;;6.80;99.90;;;;;;5095171;28;20024;-75
2022/01/23 09:35:12;;;;;;;40.83;21.27;;;6.80;99.90;;;;;;5093722;28;20031;-74
2022/01/23 09:37:37;;;;;;;30.45;17.65;;;6.90;99.90;;;;;;5086998;28;20020;-73
2022/01/23 09:40:05;;;;;;;35.90;19.42;;;6.90;99.90;;;;;;5086714;28;20025;-74
2022/01/23 09:42:40;;;;;;;30.42;17.95;;;7.00;99.90;;;;;;5088575;28;20040;-76
2022/01/23 09:45:12;;;;;;;35.80;19.20;;;7.00;99.90;;;;;;5093131;28;20020;-75
2022/01/23 09:47:39;;;;;;;33.30;18.75;;;7.00;99.90;;;;;;5094008;28;20031;-74
2022/01/23 09:50:07;;;;;;;33.70;18.77;;;7.00;99.90;;;;;;5082982;28;20017;-76
2022/01/23 09:52:35;;;;;;;30.48;18.95;;;7.10;99.90;;;;;;5094328;28;20032;-75
2022/01/23 09:55:08;;;;;;;30.38;17.80;;;7.10;99.90;;;;;;5094307;28;20024;-75
2022/01/23 09:57:40;;;;;;;31.83;19.48;;;7.10;99.90;;;;;;5085103;28;20073;-75
2022/01/23 10:00:09;;;;;;;34.17;18.23;;;7.10;99.90;;;;;;5076114;28;20039;-75
2022/01/23 10:02:35;;;;;;;28.73;18.83;;;7.20;99.90;;;;;;5076392;28;20146;-76
2022/01/23 10:05:01;;;;;;;29.10;18.35;;;7.20;99.90;;;;;;5084299;28;20115;-75
2022/01/23 10:07:28;;;;;;;30.33;18.35;;;7.20;99.90;;;;;;5081361;28;20047;-75
2022/01/23 10:10:02;;;;;;;32.05;17.75;;;7.30;99.90;;;;;;5094374;28;20020;-73
2022/01/23 10:12:28;;;;;;;28.50;17.50;;;7.30;99.90;;;;;;5095804;28;20050;-75
2022/01/23 10:14:54;;;;;;;27.23;15.98;;;7.30;99.90;;;;;;5081412;28;20020;-75
2022/01/23 10:17:20;;;;;;;30.83;17.27;;;7.40;99.90;;;;;;5086098;28;20032;-73
2022/01/23 10:19:48;;;;;;;32.70;18.65;;;7.40;99.90;;;;;;5095879;28;20468;-75
2022/01/23 10:22:15;;;;;;;29.80;18.08;;;7.50;99.90;;;;;;5094032;28;20047;-75
2022/01/23 10:24:41;;;;;;;26.50;15.80;;;7.50;99.90;;;;;;5096877;28;20115;-74
2022/01/23 10:27:07;;;;;;;30.52;17.80;;;7.50;99.90;;;;;;5095745;28;20104;-75
2022/01/23 10:29:37;;;;;;;30.23;18.33;;;7.60;99.90;;;;;;5095725;28;20050;-75
2022/01/23 10:32:07;;;;;;;29.23;18.88;;;7.60;99.90;;;;;;5095027;28;20024;-75
2022/01/23 10:34:52;;;;;;;25.10;17.30;;;7.60;99.90;;;;;;5094056;28;20048;-75
2022/01/23 10:37:31;;;;;;;30.25;17.75;;;7.70;99.90;;;;;;5093482;28;20024;-75
2022/01/23 10:40:11;;;;;;;29.65;18.08;;;7.70;99.90;;;;;;5094093;28;20020;-75
2022/01/23 10:51:19;;;;;;;26.38;15.63;;;7.90;99.90;;;;;;5093443;28;20026;-75
2022/01/23 10:53:59;;;;;;;31.90;17.33;;;8.00;99.90;;;;;;5094361;28;20027;-75
2022/01/23 10:56:30;;;;;;;29.15;17.30;;;8.00;99.90;;;;;;5092980;28;20028;-73
2022/01/23 10:59:16;;;;;;;32.35;17.55;;;8.10;99.90;;;;;;5093609;28;20051;-75
2022/01/23 11:02:04;;;;;;;27.27;17.13;;;8.10;99.90;;;;;;5094304;28;20023;-76
2022/01/23 11:05:05;;;;;;;26.85;16.83;;;8.10;99.90;;;;;;5092806;28;20079;-75
2022/01/23 11:07:32;;;;;;;28.65;17.60;;;8.20;99.90;;;;;;5050965;28;20041;-75
2022/01/23 11:10:03;;;;;;;25.25;16.55;;;8.20;99.90;;;;;;5085179;28;20039;-75
2022/01/23 11:12:46;;;;;;;33.88;17.83;;;8.20;99.90;;;;;;5092852;28;20567;-75
2022/01/23 11:18:04;;;;;;;26.73;16.80;;;8.30;99.90;;;;;;5093075;28;20513;-76
2022/01/23 11:20:49;;;;;;;25.45;16.60;;;8.30;99.90;;;;;;5093518;28;20117;-76
2022/01/23 11:23:23;;;;;;;28.83;18.80;;;8.40;99.90;;;;;;5093106;28;20053;-73
2022/01/23 11:25:51;;;;;;;27.17;17.58;;;8.40;99.90;;;;;;5092730;28;20070;-74
2022/01/23 11:28:17;;;;;;;26.92;16.92;;;8.30;99.90;;;;;;5092816;28;20498;-74
2022/01/23 11:30:48;;;;;;;25.70;16.77;;;8.40;99.90;;;;;;5094468;28;20107;-74
2022/01/23 11:33:17;;;;;;;22.65;15.70;;;8.40;99.90;;;;;;5092679;28;20025;-75
2022/01/23 11:35:44;;;;;;;28.27;17.55;;;8.50;99.90;;;;;;5093117;28;20040;-73
2022/01/23 11:38:13;;;;;;;32.25;18.70;;;8.50;99.90;;;;;;5092575;28;20042;-74
2022/01/23 11:54:40;;;;;;;28.65;17.92;;;8.70;99.90;;;;;;5092376;28;20032;-75
2022/01/23 11:57:38;;;;;;;30.77;17.75;;;8.70;99.90;;;;;;5092420;28;20080;-74
2022/01/23 12:00:07;;;;;;;28.00;17.48;;;8.80;99.90;;;;;;5092635;28;20036;-75
2022/01/23 12:02:38;;;;;;;27.45;17.52;;;8.80;99.90;;;;;;5092927;28;20105;-73
2022/01/23 12:05:15;;;;;;;24.75;15.55;;;8.90;99.90;;;;;;5093674;28;20020;-75
2022/01/23 12:07:42;;;;;;;29.17;17.33;;;8.90;99.90;;;;;;5092607;28;20097;-75
2022/01/23 12:10:20;;;;;;;28.30;17.83;;;8.90;99.90;;;;;;5092659;28;20035;-75
2022/01/23 12:12:49;;;;;;;23.52;16.30;;;8.90;99.90;;;;;;5094213;28;20028;-74
2022/01/23 12:18:12;;;;;;;27.48;15.85;;;9.00;99.90;;;;;;5092917;28;20034;-74
2022/01/23 12:20:39;;;;;;;22.63;15.52;;;9.00;99.90;;;;;;5092270;28;20028;-75
2022/01/23 12:23:05;;;;;;;27.80;17.70;;;9.00;99.90;;;;;;5092170;28;20028;-74
2022/01/23 12:25:44;;;;;;;24.15;15.57;;;9.10;99.90;;;;;;5092598;28;20051;-74
2022/01/23 12:28:11;;;;;;;27.13;14.98;;;9.10;99.90;;;;;;5091217;28;20051;-73
2022/01/23 12:30:38;;;;;;;23.40;14.90;;;9.00;99.90;;;;;;5092439;28;20428;-74
2022/01/23 12:33:26;;;;;;;24.92;16.67;;;9.00;99.90;;;;;;5092629;28;20024;-74
2022/01/23 12:35:56;;;;;;;28.38;16.48;;;9.00;99.90;;;;;;5091877;28;20480;-74
2022/01/23 12:38:32;;;;;;;24.50;16.20;;;9.10;99.90;;;;;;5092057;28;20059;-73
2022/01/23 12:41:27;;;;;;;26.55;16.33;;;9.10;99.90;;;;;;5092395;28;20103;-74
2022/01/23 12:44:04;;;;;;;23.23;15.65;;;9.00;99.90;;;;;;5086727;28;20063;-74
2022/01/23 12:46:41;;;;;;;24.52;15.27;;;9.00;99.90;;;;;;5093272;28;20103;-73
2022/01/23 12:49:23;;;;;;;24.98;14.75;;;9.00;99.90;;;;;;5094848;28;20028;-73
2022/01/23 12:51:53;;;;;;;24.13;14.55;;;9.00;99.90;;;;;;5093023;28;20394;-73
2022/01/23 12:54:25;;;;;;;24.02;14.40;;;9.00;99.90;;;;;;5092317;28;20036;-74
2022/01/23 12:56:52;;;;;;;23.75;14.55;;;9.10;99.90;;;;;;5091412;28;20032;-74
2022/01/23 12:59:28;;;;;;;29.05;16.25;;;9.10;99.90;;;;;;5091859;28;20047;-74
2022/01/23 13:02:00;;;;;;;28.30;16.15;;;9.00;99.90;;;;;;5091817;28;20119;-74
2022/01/23 13:04:54;;;;;;;24.15;15.70;;;9.00;99.90;;;;;;5093703;28;20036;-73
2022/01/23 13:12:52;;;;;;;23.52;16.55;;;9.00;99.90;;;;;;5092482;28;20020;-74
2022/01/23 13:32:24;;;;;;;23.67;15.52;;;9.00;99.90;;;;;;5092441;28;20054;-75
2022/01/23 13:34:56;;;;;;;21.92;14.35;;;8.90;99.90;;;;;;5096463;28;20333;-75
2022/01/23 13:37:24;;;;;;;18.52;13.68;;;8.90;99.90;;;;;;5095447;28;20032;-75
2022/01/23 13:39:57;;;;;;;21.27;14.65;;;9.00;99.90;;;;;;5095186;28;20069;-75
2022/01/23 13:59:53;;;;;;;25.42;17.20;;;8.80;99.90;;;;;;5084632;28;20086;-75
2022/01/23 14:02:37;;;;;;;27.45;17.92;;;8.70;99.90;;;;;;5077616;28;20029;-74
2022/01/23 14:05:14;;;;;;;25.20;16.95;;;8.70;99.90;;;;;;5075085;28;20030;-74
2022/01/23 14:07:45;;;;;;;28.52;18.35;;;8.70;99.90;;;;;;5091375;28;20056;-74
2022/01/23 14:10:16;;;;;;;;;;;8.60;99.90;;;;;;5095339;28;20422;-74
2022/01/23 14:12:43;;;;;;;27.02;18.27;;;8.60;99.90;;;;;;5095160;28;19908;-74
2022/01/23 14:15:16;;;;;;;25.00;17.88;;;8.50;99.90;;;;;;5094168;28;20031;-75
2022/01/23 14:17:42;;;;;;;26.05;18.60;;;8.50;99.90;;;;;;5094996;28;20463;-75
2022/01/23 14:20:18;;;;;;;28.45;20.70;;;8.50;99.90;;;;;;5093661;28;20028;-73
2022/01/23 14:22:46;;;;;;;30.30;19.70;;;8.50;99.90;;;;;;5094511;28;20035;-75
2022/01/23 14:25:24;;;;;;;29.00;20.92;;;8.50;99.90;;;;;;5094032;28;20089;-74
2022/01/23 14:28:06;;;;;;;33.38;21.38;;;8.40;99.90;;;;;;5093919;28;20038;-73
2022/01/23 14:30:34;;;;;;;32.47;21.98;;;8.50;99.90;;;;;;5094539;28;20020;-74
2022/01/23 14:33:22;;;;;;;32.50;21.77;;;8.40;99.90;;;;;;5084402;28;20466;-73
2022/01/23 14:35:50;;;;;;;32.15;20.83;;;8.40;99.90;;;;;;5084044;28;20024;-73
2022/01/23 14:38:25;;;;;;;33.33;21.77;;;8.40;99.90;;;;;;5075732;28;20496;-74
2022/01/23 14:41:00;;;;;;;33.92;22.85;;;8.30;99.90;;;;;;5073891;28;20539;-73
2022/01/23 14:43:30;;;;;;;37.10;22.60;;;8.30;99.90;;;;;;5072779;28;20037;-73
2022/01/23 14:45:56;;;;;;;;;;;8.20;99.90;;;;;;5074287;28;20017;-74
2022/01/23 14:48:23;;;;;;;30.65;19.13;;;8.20;99.90;;;;;;5072448;28;20755;-73
2022/01/23 14:50:54;;;;;;;38.90;22.35;;;8.20;99.90;;;;;;5073414;28;20024;-74
2022/01/23 14:53:23;;;;;;;28.55;19.00;;;8.10;99.90;;;;;;5073256;28;20025;-73
2022/01/23 14:55:55;;;;;;;28.95;18.65;;;8.10;99.90;;;;;;5072812;28;20029;-73
2022/01/23 14:58:22;;;;;;;23.70;17.40;;;8.10;99.90;;;;;;5073238;28;20100;-73
2022/01/23 15:00:51;;;;;;;31.45;19.77;;;8.00;99.90;;;;;;5073937;28;20035;-73
2022/01/23 15:03:19;;;;;;;31.73;18.13;;;8.00;99.90;;;;;;5072598;28;20040;-74
2022/01/23 15:05:45;;;;;;;29.00;18.48;;;8.00;99.90;;;;;;5074097;28;20020;-73
2022/01/23 15:08:13;;;;;;;27.65;17.70;;;8.00;99.90;;;;;;5072823;28;20048;-73
2022/01/23 15:10:41;;;;;;;28.52;19.10;;;7.90;99.90;;;;;;5072382;28;20024;-73
2022/01/23 15:13:07;;;;;;;29.65;19.25;;;7.90;99.90;;;;;;5072761;28;20021;-73
2022/01/23 15:15:33;;;;;;;25.17;18.00;;;7.80;99.90;;;;;;5073265;28;20023;-73
2022/01/23 15:17:59;;;;;;;28.27;18.05;;;7.80;99.90;;;;;;5072126;28;20076;-73
2022/01/23 15:20:27;;;;;;;29.58;18.98;;;7.80;99.90;;;;;;5072696;28;20031;-74
2022/01/23 15:22:53;;;;;;;28.67;19.15;;;7.80;99.90;;;;;;5072765;28;20029;-75
2022/01/23 15:25:19;;;;;;;28.85;19.40;;;7.70;99.90;;;;;;5071743;28;20078;-74
2022/01/23 15:27:46;;;;;;;28.70;19.95;;;7.70;99.90;;;;;;5076629;28;20039;-74
2022/01/23 15:30:13;;;;;;;23.88;18.65;;;7.70;99.90;;;;;;5072966;28;20028;-74
2022/01/23 15:32:39;;;;;;;26.25;18.42;;;7.70;99.90;;;;;;5074175;28;20028;-73
2022/01/23 15:35:06;;;;;;;26.25;19.23;;;7.60;99.90;;;;;;5075108;28;20123;-74
2022/01/23 15:37:31;;;;;;;27.63;18.63;;;7.70;99.90;;;;;;5071064;28;20036;-74
2022/01/23 15:39:58;;;;;;;26.15;17.67;;;7.60;99.90;;;;;;5071990;28;20024;-74
2022/01/23 15:42:23;;;;;;;23.60;17.42;;;7.60;99.90;;;;;;5072951;28;20040;-74
2022/01/23 15:44:52;;;;;;;25.85;18.85;;;7.60;99.90;;;;;;5073479;28;20020;-74
2022/01/23 15:47:18;;;;;;;33.60;20.00;;;7.50;99.90;;;;;;5073162;28;20024;-71
2022/01/23 15:49:43;;;;;;;31.15;20.45;;;7.50;99.90;;;;;;5071421;28;20025;-74
2022/01/23 15:52:10;;;;;;;29.92;19.17;;;7.50;99.90;;;;;;5072876;28;20495;-74
2022/01/23 15:54:39;;;;;;;27.60;19.00;;;7.50;99.90;;;;;;5072231;28;20046;-74
2022/01/23 15:57:06;;;;;;;28.30;19.65;;;7.50;99.90;;;;;;5071783;28;20032;-74
2022/01/23 15:59:33;;;;;;;26.75;19.02;;;7.50;99.90;;;;;;5071507;28;20154;-73
2022/01/23 16:01:58;;;;;;;34.20;21.30;;;7.50;99.90;;;;;;5071721;28;20082;-73
2022/01/23 16:04:24;;;;;;;37.58;23.13;;;7.50;99.90;;;;;;5072192;28;20021;-75
2022/01/23 16:06:50;;;;;;;34.47;21.65;;;7.40;99.90;;;;;;5071808;28;20049;-75
2022/01/23 16:09:16;;;;;;;32.83;23.55;;;7.40;99.90;;;;;;5070919;28;20510;-75